Terminal Aerodrome Forecast
Issued by NWS

Home | Current Version | Previous Version | Text Only | Print | Product List | Glossary On
Versions: 1 2 3 4 5 6 7 8 9 10 11 12 13 14
000
FTUS42 KGSP 261736
TAFHKY
TAF
KHKY 261736Z 2618/2718 26003KT P6SM VCTS BKN060CB
     FM270100 VRB02KT P6SM BKN070
     FM270400 27003KT P6SM SCT070 PROB30 2716/2718 4SM -TSRA
      BKN060CB=

USA.gov is the U.S. government's official web portal to all federal, state and local government web resources and services.